createdAt,value
2022-09-28T00:01:17.422Z,7.90
2022-09-28T00:03:47.245Z,7.90
2022-09-28T00:06:17.166Z,7.90
2022-09-28T00:08:45.469Z,7.90
2022-09-28T00:11:15.330Z,7.80
2022-09-28T00:13:45.227Z,7.80
2022-09-28T00:16:15.545Z,7.80
2022-09-28T00:18:45.550Z,7.80
2022-09-28T00:21:16.844Z,7.90
2022-09-28T00:23:59.696Z,7.90
2022-09-28T00:26:28.252Z,7.90
2022-09-28T00:28:58.471Z,7.90
2022-09-28T00:31:27.459Z,7.90
2022-09-28T00:33:56.880Z,7.90
2022-09-28T00:36:28.101Z,8.00
2022-09-28T00:38:56.409Z,8.00
2022-09-28T00:41:25.008Z,7.90
2022-09-28T00:43:53.264Z,8.00
2022-09-28T00:46:25.595Z,8.00
2022-09-28T00:48:58.032Z,7.90
2022-09-28T00:51:28.585Z,7.80
2022-09-28T00:53:57.571Z,7.80
2022-09-28T00:56:30.470Z,7.80
2022-09-28T00:58:59.999Z,7.70
2022-09-28T01:01:28.932Z,7.70
2022-09-28T01:03:59.018Z,7.60
2022-09-28T01:06:33.253Z,7.60
2022-09-28T01:09:04.637Z,7.60
2022-09-28T01:11:33.898Z,7.60
2022-09-28T01:14:04.295Z,7.60
2022-09-28T01:16:42.569Z,7.60
2022-09-28T01:20:08.384Z,7.60
2022-09-28T01:23:19.621Z,7.50
2022-09-28T01:25:54.836Z,7.50
2022-09-28T01:28:28.891Z,7.50
2022-09-28T01:31:04.224Z,7.50
2022-09-28T01:33:38.046Z,7.50
2022-09-28T01:36:10.642Z,7.50
2022-09-28T01:38:44.088Z,7.50
2022-09-28T01:41:14.119Z,7.50
2022-09-28T01:43:49.504Z,7.40
2022-09-28T01:46:21.581Z,7.40
2022-09-28T01:48:53.204Z,7.30
2022-09-28T01:51:29.233Z,7.30
2022-09-28T01:54:02.698Z,7.30
2022-09-28T01:56:35.878Z,7.30
2022-09-28T01:59:12.637Z,7.20
2022-09-28T02:01:44.413Z,7.20
2022-09-28T02:04:17.739Z,7.10
2022-09-28T02:06:54.099Z,7.00
2022-09-28T02:09:33.554Z,6.90
2022-09-28T02:12:08.448Z,6.90
2022-09-28T02:14:41.676Z,6.80
2022-09-28T02:17:11.028Z,6.80
2022-09-28T02:19:41.321Z,6.80
2022-09-28T02:22:23.255Z,6.80
2022-09-28T02:24:56.128Z,6.80
2022-09-28T02:27:35.675Z,6.80
2022-09-28T02:30:06.984Z,6.70
2022-09-28T02:32:40.297Z,6.70
2022-09-28T02:35:13.000Z,6.60
2022-09-28T02:37:41.728Z,6.60
2022-09-28T02:40:15.222Z,6.50
2022-09-28T02:42:54.816Z,6.50
2022-09-28T02:45:38.961Z,6.40
2022-09-28T02:48:35.909Z,6.30
2022-09-28T02:51:19.622Z,6.20
2022-09-28T02:54:05.721Z,6.30
2022-09-28T02:56:52.033Z,6.30
2022-09-28T02:59:37.175Z,6.30
2022-09-28T03:02:18.664Z,6.40
2022-09-28T03:04:57.767Z,6.30
2022-09-28T03:07:33.736Z,6.40
2022-09-28T03:10:06.594Z,6.40
2022-09-28T03:12:35.521Z,6.40
2022-09-28T03:15:08.930Z,6.40
2022-09-28T03:17:38.365Z,6.50
2022-09-28T03:20:07.653Z,6.40
2022-09-28T03:22:35.609Z,6.40
2022-09-28T03:25:03.452Z,6.40
2022-09-28T03:27:31.498Z,6.40
2022-09-28T03:29:59.575Z,6.50
2022-09-28T03:32:27.582Z,6.50
2022-09-28T03:34:56.863Z,6.50
2022-09-28T03:37:24.772Z,6.50
2022-09-28T03:39:52.840Z,6.50
2022-09-28T03:42:20.921Z,6.50
2022-09-28T03:44:51.916Z,6.60
2022-09-28T03:47:21.339Z,6.60
2022-09-28T03:49:49.278Z,6.70
2022-09-28T03:52:18.753Z,6.70
2022-09-28T03:54:49.241Z,6.70
2022-09-28T03:57:18.855Z,6.80
2022-09-28T03:59:46.884Z,6.80
2022-09-28T04:02:15.436Z,6.80
2022-09-28T04:04:43.791Z,6.80
2022-09-28T04:07:11.762Z,6.80
2022-09-28T04:09:41.319Z,6.80
2022-09-28T04:12:09.407Z,6.80
2022-09-28T04:14:37.434Z,6.90
2022-09-28T04:17:07.155Z,6.90
2022-09-28T04:19:35.442Z,6.90
2022-09-28T04:22:20.974Z,7.00
2022-09-28T04:24:52.485Z,7.00
2022-09-28T04:27:37.914Z,7.00
2022-09-28T04:30:06.885Z,7.00
2022-09-28T04:32:35.916Z,7.00
2022-09-28T04:35:04.044Z,6.90
2022-09-28T04:37:33.747Z,6.90
2022-09-28T04:40:04.865Z,7.00
2022-09-28T04:42:33.854Z,6.90
2022-09-28T04:45:02.213Z,6.90
2022-09-28T04:47:31.273Z,7.00
2022-09-28T04:50:16.792Z,7.00
2022-09-28T04:53:03.405Z,7.00
2022-09-28T04:55:33.067Z,7.00
2022-09-28T04:58:02.454Z,6.90
2022-09-28T05:00:33.740Z,6.90
2022-09-28T05:03:16.265Z,6.80
2022-09-28T05:06:04.651Z,6.70
2022-09-28T05:09:22.494Z,6.60
2022-09-28T05:11:53.081Z,6.50
2022-09-28T05:14:23.152Z,6.50
2022-09-28T05:16:52.329Z,6.50
2022-09-28T05:19:20.285Z,6.50
2022-09-28T05:21:49.545Z,6.50
2022-09-28T05:24:17.919Z,6.60
2022-09-28T05:26:52.536Z,6.60
2022-09-28T05:29:21.086Z,6.70
2022-09-28T05:32:07.560Z,6.70
2022-09-28T05:35:01.123Z,6.80
2022-09-28T05:37:38.412Z,6.90
2022-09-28T05:40:07.278Z,7.00
2022-09-28T05:42:36.600Z,7.00
2022-09-28T05:45:06.209Z,7.10
2022-09-28T05:47:38.885Z,7.10
2022-09-28T05:50:09.107Z,7.10
2022-09-28T05:52:37.156Z,7.20
2022-09-28T05:55:07.762Z,7.20
2022-09-28T05:57:37.691Z,7.30
2022-09-28T06:00:08.215Z,7.20
2022-09-28T06:02:40.617Z,7.30
2022-09-28T06:05:11.825Z,7.20
2022-09-28T06:07:39.924Z,7.20
2022-09-28T06:10:08.619Z,7.20
2022-09-28T06:12:44.896Z,7.10
2022-09-28T06:15:17.387Z,7.10
2022-09-28T06:17:46.687Z,7.10
2022-09-28T06:20:38.053Z,7.20
2022-09-28T06:23:13.994Z,7.20
2022-09-28T06:25:42.197Z,7.10
2022-09-28T06:28:14.180Z,7.10
2022-09-28T06:30:44.024Z,7.00
2022-09-28T06:33:16.353Z,7.00
2022-09-28T06:36:11.602Z,6.90
2022-09-28T06:38:39.585Z,7.00
2022-09-28T06:41:07.664Z,6.90
2022-09-28T06:43:39.575Z,6.90
2022-09-28T06:46:14.130Z,7.00
2022-09-28T06:48:45.117Z,7.00
2022-09-28T06:51:16.654Z,6.80
2022-09-28T06:53:56.463Z,6.90
2022-09-28T06:56:47.590Z,6.90
2022-09-28T06:59:16.978Z,7.00
2022-09-28T07:01:44.949Z,7.00
2022-09-28T07:04:21.250Z,7.20
2022-09-28T07:07:20.981Z,7.20
2022-09-28T07:10:09.914Z,7.30
2022-09-28T07:13:06.921Z,7.30
2022-09-28T07:15:44.268Z,7.30
2022-09-28T07:18:14.838Z,7.40
2022-09-28T07:20:52.826Z,7.40
2022-09-28T07:23:22.364Z,7.50
2022-09-28T07:26:22.931Z,7.50
2022-09-28T07:29:14.784Z,7.60
2022-09-28T07:31:56.235Z,7.60
2022-09-28T07:34:29.988Z,7.60
2022-09-28T07:37:04.306Z,7.70
2022-09-28T07:39:32.264Z,7.70
2022-09-28T07:42:03.037Z,7.70
2022-09-28T07:44:32.348Z,7.80
2022-09-28T07:47:02.639Z,7.80
2022-09-28T07:49:54.255Z,7.90
2022-09-28T07:52:39.584Z,8.00
2022-09-28T07:55:24.375Z,8.10
2022-09-28T07:58:10.999Z,8.10
2022-09-28T08:00:50.077Z,8.20
2022-09-28T08:03:22.418Z,8.30
2022-09-28T08:05:50.337Z,8.40
2022-09-28T08:08:20.302Z,8.50
2022-09-28T08:10:48.839Z,8.70
2022-09-28T08:13:32.028Z,9.00
2022-09-28T08:16:12.915Z,9.10
2022-09-28T08:19:00.806Z,9.10
2022-09-28T08:21:45.824Z,9.20
2022-09-28T08:24:15.435Z,9.10
2022-09-28T08:26:44.549Z,9.10
2022-09-28T08:29:16.081Z,9.00
2022-09-28T08:32:01.503Z,8.90
2022-09-28T08:34:37.418Z,8.90
2022-09-28T08:37:17.269Z,8.90
2022-09-28T08:40:19.755Z,9.00
2022-09-28T08:43:07.398Z,9.10
2022-09-28T08:45:54.287Z,9.10
2022-09-28T08:49:13.370Z,9.10
2022-09-28T08:52:00.350Z,9.20
2022-09-28T08:54:56.137Z,9.20
2022-09-28T08:57:39.238Z,9.30
2022-09-28T09:00:11.086Z,9.40
2022-09-28T09:02:42.772Z,9.40
2022-09-28T09:05:24.521Z,9.40
2022-09-28T09:08:23.519Z,9.50
2022-09-28T09:10:54.040Z,9.50
2022-09-28T09:13:52.267Z,9.50
2022-09-28T09:16:34.319Z,9.50
2022-09-28T09:19:35.462Z,9.50
2022-09-28T09:22:40.713Z,9.40
2022-09-28T09:25:19.305Z,9.30
2022-09-28T09:28:26.228Z,9.20
2022-09-28T09:31:06.188Z,9.20
2022-09-28T09:34:06.404Z,9.30
2022-09-28T09:37:06.027Z,9.40
2022-09-28T09:40:24.929Z,9.40
2022-09-28T09:43:53.538Z,9.50
2022-09-28T09:46:52.645Z,9.40
2022-09-28T09:49:31.813Z,9.40
2022-09-28T09:52:05.863Z,9.40
2022-09-28T09:54:39.029Z,9.40
2022-09-28T09:57:16.421Z,9.40
2022-09-28T10:00:06.416Z,9.70
2022-09-28T10:02:52.873Z,10.00
2022-09-28T10:05:36.952Z,10.30
2022-09-28T10:08:12.672Z,10.60
2022-09-28T10:10:49.871Z,10.90
2022-09-28T10:13:21.485Z,11.30
2022-09-28T10:15:51.422Z,11.30
2022-09-28T10:18:32.160Z,11.20
2022-09-28T10:21:40.257Z,11.10
2022-09-28T10:24:31.119Z,11.00
2022-09-28T10:27:06.871Z,11.00
2022-09-28T10:29:45.328Z,11.00
2022-09-28T10:32:22.296Z,11.20
2022-09-28T10:34:54.972Z,11.50
2022-09-28T10:37:28.516Z,12.10
2022-09-28T10:40:28.258Z,12.40
2022-09-28T10:43:02.378Z,12.50
2022-09-28T10:45:37.020Z,12.30
2022-09-28T10:48:17.480Z,12.00
2022-09-28T10:51:00.155Z,11.60
2022-09-28T10:53:28.492Z,10.90
2022-09-28T10:56:21.864Z,10.30
2022-09-28T10:58:57.833Z,9.70
2022-09-28T11:01:40.100Z,9.40
2022-09-28T11:04:21.836Z,9.00
2022-09-28T11:06:50.466Z,8.70
2022-09-28T11:09:30.632Z,8.50
2022-09-28T11:12:05.885Z,8.30
2022-09-28T11:14:41.884Z,8.20
2022-09-28T11:17:27.302Z,8.20
2022-09-28T11:19:56.174Z,8.30
2022-09-28T11:22:28.920Z,8.40
2022-09-28T11:25:24.117Z,8.40
2022-09-28T11:28:01.284Z,8.50
2022-09-28T11:30:33.850Z,8.60
2022-09-28T11:33:35.817Z,8.60
2022-09-28T11:36:41.591Z,8.70
2022-09-28T11:39:13.161Z,8.70
2022-09-28T11:42:02.165Z,8.80
2022-09-28T11:44:44.647Z,8.80
2022-09-28T11:47:43.267Z,8.80
2022-09-28T11:50:24.631Z,8.90
2022-09-28T11:53:01.984Z,9.00
2022-09-28T11:55:34.952Z,9.40
2022-09-28T11:58:10.643Z,9.70
2022-09-28T12:00:45.735Z,10.00
2022-09-28T12:03:18.277Z,10.30
2022-09-28T12:05:56.605Z,10.60
2022-09-28T12:08:28.739Z,10.70
2022-09-28T12:11:10.631Z,10.80
2022-09-28T12:14:00.826Z,10.80
2022-09-28T12:17:00.918Z,10.70
2022-09-28T12:19:27.371Z,10.70
2022-09-28T12:22:00.626Z,10.70
2022-09-28T12:24:32.076Z,10.70
2022-09-28T12:27:05.577Z,10.60
2022-09-28T12:29:40.086Z,10.40
2022-09-28T12:32:15.300Z,10.30
2022-09-28T12:34:43.829Z,10.10
2022-09-28T12:37:31.390Z,10.00
2022-09-28T12:40:20.737Z,9.90
2022-09-28T12:43:10.551Z,9.90
2022-09-28T12:46:10.832Z,9.90
2022-09-28T12:52:28.007Z,10.40
2022-09-28T12:55:20.776Z,10.70
2022-09-28T12:58:02.288Z,10.80
2022-09-28T13:00:39.985Z,10.90
2022-09-28T13:03:31.163Z,11.00
2022-09-28T13:06:15.039Z,11.00
2022-09-28T13:08:55.324Z,11.10
2022-09-28T13:11:33.465Z,11.00
2022-09-28T13:14:21.938Z,10.90
2022-09-28T13:17:00.769Z,10.80
2022-09-28T13:19:36.419Z,10.70
2022-09-28T13:22:14.614Z,10.70
2022-09-28T13:24:47.371Z,10.70
2022-09-28T13:27:25.993Z,11.00
2022-09-28T13:30:02.759Z,11.30
2022-09-28T13:32:37.054Z,11.40
2022-09-28T13:35:08.667Z,11.40
2022-09-28T13:38:10.932Z,11.40
2022-09-28T13:41:30.165Z,11.30
2022-09-28T13:44:45.225Z,11.30
2022-09-28T13:48:52.759Z,11.30
2022-09-28T13:52:10.652Z,11.20
2022-09-28T14:00:00.861Z,10.90
2022-09-28T14:02:36.506Z,11.30
2022-09-28T14:05:06.936Z,11.30
2022-09-28T14:07:58.744Z,11.30
2022-09-28T14:10:51.891Z,11.40
2022-09-28T14:14:17.952Z,11.60
2022-09-28T14:16:49.701Z,11.80
2022-09-28T14:19:26.915Z,12.10
2022-09-28T14:22:07.071Z,12.30
2022-09-28T14:25:07.574Z,12.40
2022-09-28T14:28:04.924Z,12.40
2022-09-28T14:30:55.442Z,12.30
2022-09-28T14:34:15.758Z,12.00
2022-09-28T14:37:06.680Z,11.80
2022-09-28T14:40:15.273Z,11.60
2022-09-28T14:43:54.647Z,11.40
2022-09-28T14:47:15.154Z,11.50
2022-09-28T14:54:04.251Z,11.40
2022-09-28T14:56:52.963Z,11.20
2022-09-28T14:59:42.954Z,11.00
2022-09-28T15:02:44.241Z,11.00
2022-09-28T15:05:29.204Z,11.20
2022-09-28T15:08:08.079Z,11.40
2022-09-28T15:10:46.627Z,11.50
2022-09-28T15:13:34.229Z,11.40
2022-09-28T15:16:08.738Z,11.40
2022-09-28T15:19:19.468Z,11.20
2022-09-28T15:21:54.943Z,11.20
2022-09-28T15:25:05.782Z,11.10
2022-09-28T15:27:41.615Z,11.00
2022-09-28T15:34:15.331Z,10.80
2022-09-28T15:37:02.345Z,10.70
2022-09-28T15:39:46.256Z,10.60
2022-09-28T15:42:14.791Z,10.50
2022-09-28T15:44:47.711Z,10.40
2022-09-28T15:47:20.972Z,10.20
2022-09-28T15:49:58.650Z,10.10
2022-09-28T15:52:35.321Z,10.00
2022-09-28T15:55:06.297Z,9.90
2022-09-28T15:57:37.908Z,9.90
2022-09-28T16:00:26.294Z,9.80
2022-09-28T16:03:03.619Z,9.80
2022-09-28T16:05:35.762Z,9.70
2022-09-28T16:08:05.789Z,9.70
2022-09-28T16:10:35.844Z,9.70
2022-09-28T16:13:16.671Z,9.70
2022-09-28T16:15:46.110Z,9.60
2022-09-28T16:18:20.639Z,9.60
2022-09-28T16:20:51.013Z,9.50
2022-09-28T16:23:22.507Z,9.50
2022-09-28T16:25:53.647Z,9.40
2022-09-28T16:28:29.548Z,9.40
2022-09-28T16:31:05.814Z,9.40
2022-09-28T16:33:43.727Z,9.40
2022-09-28T16:36:14.112Z,9.30
2022-09-28T16:38:45.232Z,9.30
2022-09-28T16:41:14.236Z,9.30
2022-09-28T16:44:14.550Z,9.30
2022-09-28T16:46:45.535Z,9.20
2022-09-28T16:49:18.713Z,9.20
2022-09-28T16:51:47.599Z,9.20
2022-09-28T16:54:35.639Z,9.20
2022-09-28T16:57:06.085Z,9.20
2022-09-28T16:59:34.108Z,9.20
2022-09-28T17:02:03.626Z,9.20
2022-09-28T17:04:31.495Z,9.20
2022-09-28T17:06:59.474Z,9.20
2022-09-28T17:09:27.398Z,9.10
2022-09-28T17:11:56.673Z,9.10
2022-09-28T17:14:24.974Z,9.10
2022-09-28T17:19:51.083Z,9.10
2022-09-28T17:22:35.971Z,9.00
2022-09-28T17:25:06.033Z,9.00
2022-09-28T17:27:35.465Z,8.90
2022-09-28T17:30:06.804Z,8.80
2022-09-28T17:32:38.124Z,8.80
2022-09-28T17:35:24.026Z,8.70
2022-09-28T17:37:53.432Z,8.60
2022-09-28T17:40:23.475Z,8.50
2022-09-28T17:42:57.755Z,8.50
2022-09-28T17:45:26.945Z,8.50
2022-09-28T17:47:55.958Z,8.40
2022-09-28T17:50:27.979Z,8.40
2022-09-28T17:52:58.017Z,8.40
2022-09-28T17:55:28.565Z,8.40
2022-09-28T17:57:57.348Z,8.30
2022-09-28T18:00:27.485Z,8.40
2022-09-28T18:02:56.541Z,8.40
2022-09-28T18:05:27.717Z,8.40
2022-09-28T18:07:58.079Z,8.40
2022-09-28T18:10:27.511Z,8.40
2022-09-28T18:12:55.626Z,8.40
2022-09-28T18:15:23.903Z,8.40
2022-09-28T18:17:52.076Z,8.30
2022-09-28T18:20:20.237Z,8.30
2022-09-28T18:22:49.685Z,8.30
2022-09-28T18:25:17.980Z,8.30
2022-09-28T18:27:46.180Z,8.30
2022-09-28T18:30:14.351Z,8.20
2022-09-28T18:32:42.392Z,8.20
2022-09-28T18:35:13.147Z,8.20
2022-09-28T18:37:41.804Z,8.20
2022-09-28T18:40:13.725Z,8.20
2022-09-28T18:42:42.269Z,8.20
2022-09-28T18:45:12.067Z,8.10
2022-09-28T18:47:40.873Z,8.10
2022-09-28T18:50:12.932Z,8.00
2022-09-28T18:52:41.272Z,8.00
2022-09-28T18:55:13.780Z,7.90
2022-09-28T18:57:42.652Z,7.90
2022-09-28T19:00:12.954Z,7.80
2022-09-28T19:02:41.337Z,7.80
2022-09-28T19:05:16.931Z,7.80
2022-09-28T19:07:48.421Z,7.70
2022-09-28T19:10:18.231Z,7.70
2022-09-28T19:12:46.519Z,7.60
2022-09-28T19:15:16.940Z,7.60
2022-09-28T19:17:47.326Z,7.60
2022-09-28T19:20:17.308Z,7.60
2022-09-28T19:22:46.892Z,7.60
2022-09-28T19:25:24.801Z,7.50
2022-09-28T19:27:56.841Z,7.50
2022-09-28T19:30:40.253Z,7.50
2022-09-28T19:33:08.978Z,7.50
2022-09-28T19:35:37.421Z,7.50
2022-09-28T19:38:09.575Z,7.60
2022-09-28T19:40:39.438Z,7.60
2022-09-28T19:43:11.986Z,7.50
2022-09-28T19:45:43.452Z,7.50
2022-09-28T19:48:20.082Z,7.50
2022-09-28T19:51:06.492Z,7.50
2022-09-28T19:53:46.218Z,7.50
2022-09-28T19:56:24.458Z,7.50
2022-09-28T19:58:58.739Z,7.50
2022-09-28T20:01:32.873Z,7.50
2022-09-28T20:04:01.646Z,7.40
2022-09-28T20:06:30.212Z,7.40
2022-09-28T20:08:59.055Z,7.40
2022-09-28T20:11:31.438Z,7.30
2022-09-28T20:14:01.298Z,7.40
2022-09-28T20:16:32.193Z,7.40
2022-09-28T20:19:04.090Z,7.40
2022-09-28T20:21:35.724Z,7.40
2022-09-28T20:24:15.210Z,7.30
2022-09-28T20:26:44.423Z,7.30
2022-09-28T20:29:19.442Z,7.30
2022-09-28T20:31:54.596Z,7.30
2022-09-28T20:34:25.308Z,7.30
2022-09-28T20:36:53.657Z,7.30
2022-09-28T20:39:24.697Z,7.30
2022-09-28T20:41:53.578Z,7.30
2022-09-28T20:44:23.320Z,7.20
2022-09-28T20:46:52.282Z,7.20
2022-09-28T20:49:21.715Z,7.10
2022-09-28T20:51:50.166Z,7.00
2022-09-28T20:54:18.505Z,7.00
2022-09-28T20:56:48.263Z,7.00
2022-09-28T20:59:17.116Z,7.00
2022-09-28T21:01:47.025Z,7.00
2022-09-28T21:04:15.521Z,7.00
2022-09-28T21:06:44.245Z,7.10
2022-09-28T21:09:13.261Z,7.10
2022-09-28T21:11:41.770Z,7.10
2022-09-28T21:14:10.794Z,7.10
2022-09-28T21:16:41.370Z,7.10
2022-09-28T21:19:10.983Z,7.10
2022-09-28T21:21:41.013Z,7.10
2022-09-28T21:24:09.898Z,7.10
2022-09-28T21:26:43.812Z,7.10
2022-09-28T21:29:15.962Z,7.00
2022-09-28T21:31:46.860Z,7.00
2022-09-28T21:34:31.534Z,7.00
2022-09-28T21:37:03.004Z,7.00
2022-09-28T21:39:37.334Z,7.00
2022-09-28T21:42:06.427Z,7.00
2022-09-28T21:44:35.233Z,7.00
2022-09-28T21:47:03.722Z,7.00
2022-09-28T21:49:45.225Z,7.00
2022-09-28T21:52:15.624Z,6.90
2022-09-28T21:54:43.942Z,6.90
2022-09-28T21:57:14.199Z,6.90
2022-09-28T21:59:45.084Z,6.90
2022-09-28T22:02:17.600Z,6.90
2022-09-28T22:04:58.585Z,6.90
2022-09-28T22:07:42.432Z,6.80
2022-09-28T22:10:16.668Z,6.80
2022-09-28T22:12:45.129Z,6.80
2022-09-28T22:15:13.382Z,6.80
2022-09-28T22:17:41.659Z,6.70
2022-09-28T22:20:11.637Z,6.70
2022-09-28T22:22:39.880Z,6.70
2022-09-28T22:25:09.169Z,6.60
2022-09-28T22:27:38.987Z,6.60
2022-09-28T22:30:08.339Z,6.50
2022-09-28T22:32:36.552Z,6.50
2022-09-28T22:35:05.187Z,6.50
2022-09-28T22:37:35.006Z,6.50
2022-09-28T22:40:03.850Z,6.50
2022-09-28T22:42:32.609Z,6.40
2022-09-28T22:45:00.780Z,6.40
2022-09-28T22:47:31.023Z,6.30
2022-09-28T22:49:59.461Z,6.30
2022-09-28T22:52:29.524Z,6.30
2022-09-28T22:55:02.543Z,6.30
2022-09-28T22:57:36.558Z,6.30
2022-09-28T23:00:11.738Z,6.30
2022-09-28T23:02:44.160Z,6.20
2022-09-28T23:05:12.687Z,6.20
2022-09-28T23:07:43.583Z,6.20
2022-09-28T23:10:16.076Z,6.20
2022-09-28T23:12:46.376Z,6.10
2022-09-28T23:15:15.769Z,6.10
2022-09-28T23:17:44.228Z,6.10
2022-09-28T23:20:16.364Z,6.10
2022-09-28T23:22:47.471Z,6.10
2022-09-28T23:25:20.279Z,6.10
2022-09-28T23:27:49.538Z,6.10
2022-09-28T23:30:23.832Z,6.10
2022-09-28T23:32:54.095Z,6.00
2022-09-28T23:36:17.347Z,6.00
2022-09-28T23:38:47.286Z,6.00
2022-09-28T23:41:17.201Z,6.00
2022-09-28T23:43:47.023Z,5.90
2022-09-28T23:46:20.515Z,5.90
2022-09-28T23:48:49.614Z,5.90
2022-09-28T23:51:21.073Z,5.90
2022-09-28T23:53:49.900Z,5.80
2022-09-28T23:56:19.820Z,5.80
2022-09-28T23:58:48.361Z,5.80
